Terminal Aerodrome Forecast
Issued by NWS Tulsa, OK

Home | Current Version | Previous Version | Text Only | Print | Product List | Glossary On
Versions: 1 2 3 4 5 6 7 8 9 10 11 12
000
FTUS44 KTSA 201700
TAFFSM
TAF
KFSM 201720Z 2018/2118 28004KT P6SM OVC050
     FM202100 28004KT P6SM SCT100
     FM210000 VRB03KT P6SM SCT250
     FM210800 00000KT 3SM BR SCT250
      TEMPO 2110/2113 1SM BR BKN005
     FM211400 VRB03KT P6SM BKN035=

USA.gov is the U.S. government's official web portal to all federal, state and local government web resources and services.